createdAt,value
2018-03-06T00:01:18.154Z,17.45
2018-03-06T00:04:21.777Z,17.62
2018-03-06T00:07:25.386Z,17.12
2018-03-06T00:10:28.858Z,12.68
2018-03-06T00:13:32.289Z,13.02
2018-03-06T00:16:35.769Z,15.55
2018-03-06T00:19:39.302Z,16.80
2018-03-06T00:22:42.709Z,13.38
2018-03-06T00:25:47.185Z,18.50
2018-03-06T00:28:59.599Z,15.77
2018-03-06T00:32:05.174Z,15.20
2018-03-06T00:35:08.871Z,17.25
2018-03-06T00:38:12.367Z,11.12
2018-03-06T00:41:15.802Z,13.90
2018-03-06T00:44:19.286Z,13.93
2018-03-06T00:47:22.673Z,16.62
2018-03-06T00:50:26.071Z,13.18
2018-03-06T00:53:30.180Z,13.75
2018-03-06T00:56:33.510Z,12.35
2018-03-06T00:59:36.971Z,13.40
2018-03-06T01:02:40.398Z,12.20
2018-03-06T01:05:43.853Z,16.77
2018-03-06T01:08:47.986Z,15.00
2018-03-06T01:11:52.125Z,21.62
2018-03-06T01:14:55.547Z,13.07
2018-03-06T01:17:58.907Z,13.52
2018-03-06T01:21:02.398Z,16.23
2018-03-06T01:24:06.491Z,19.80
2018-03-06T01:27:10.658Z,10.20
2018-03-06T01:30:14.000Z,12.07
2018-03-06T01:33:18.108Z,14.82
2018-03-06T01:36:21.478Z,12.82
2018-03-06T01:39:25.140Z,15.52
2018-03-06T01:42:29.385Z,17.42
2018-03-06T01:45:32.958Z,16.42
2018-03-06T01:48:36.412Z,12.82
2018-03-06T01:51:51.645Z,14.00
2018-03-06T01:54:55.752Z,12.95
2018-03-06T01:58:00.716Z,18.95
2018-03-06T02:01:04.993Z,13.30
2018-03-06T02:04:09.328Z,12.15
2018-03-06T02:07:13.427Z,21.00
2018-03-06T02:10:16.908Z,15.73
2018-03-06T02:13:21.014Z,15.63
2018-03-06T02:16:24.418Z,14.35
2018-03-06T02:19:27.912Z,13.43
2018-03-06T02:22:31.279Z,13.45
2018-03-06T02:25:34.615Z,19.85
2018-03-06T02:28:38.138Z,14.55
2018-03-06T02:31:41.505Z,13.95
2018-03-06T02:34:44.902Z,15.68
2018-03-06T02:37:48.269Z,13.98
2018-03-06T02:40:51.823Z,14.48
2018-03-06T02:43:56.056Z,17.12
2018-03-06T02:46:59.516Z,14.75
2018-03-06T02:50:03.012Z,28.60
2018-03-06T02:53:06.341Z,16.60
2018-03-06T02:56:09.712Z,11.80
2018-03-06T02:59:13.369Z,21.35
2018-03-06T03:02:16.829Z,18.77
2018-03-06T03:05:20.436Z,14.87
2018-03-06T03:08:23.867Z,14.25
2018-03-06T03:11:27.276Z,13.23
2018-03-06T03:14:31.402Z,14.55
2018-03-06T03:17:34.773Z,12.65
2018-03-06T03:20:38.226Z,13.15
2018-03-06T03:23:41.564Z,14.00
2018-03-06T03:26:44.856Z,11.15
2018-03-06T03:29:48.221Z,18.35
2018-03-06T03:32:51.607Z,16.80
2018-03-06T03:35:54.962Z,20.05
2018-03-06T03:38:58.247Z,24.95
2018-03-06T03:42:01.979Z,16.50
2018-03-06T03:45:05.314Z,11.40
2018-03-06T03:48:08.644Z,14.77
2018-03-06T03:51:11.910Z,13.10
2018-03-06T03:54:15.293Z,11.40
2018-03-06T03:57:18.610Z,14.05
2018-03-06T04:00:21.931Z,16.02
2018-03-06T04:03:25.261Z,14.05
2018-03-06T04:06:28.660Z,18.20
2018-03-06T04:09:32.002Z,15.60
2018-03-06T04:12:35.338Z,12.80
2018-03-06T04:15:38.705Z,16.30
2018-03-06T04:18:47.566Z,12.37
2018-03-06T04:21:50.920Z,14.45
2018-03-06T04:24:55.188Z,20.92
2018-03-06T04:27:59.365Z,12.82
2018-03-06T04:31:03.929Z,14.05
2018-03-06T04:34:08.089Z,19.23
2018-03-06T04:37:11.451Z,12.23
2018-03-06T04:40:15.553Z,17.48
2018-03-06T04:43:19.222Z,18.80
2018-03-06T04:46:22.550Z,12.85
2018-03-06T04:49:25.910Z,16.05
2018-03-06T04:52:29.256Z,19.10
2018-03-06T04:55:32.636Z,13.57
2018-03-06T04:58:35.943Z,18.70
2018-03-06T05:01:39.289Z,20.83
2018-03-06T05:04:42.834Z,18.98
2018-03-06T05:07:46.156Z,17.45
2018-03-06T05:10:50.277Z,16.77
2018-03-06T05:13:53.649Z,8.68
2018-03-06T05:16:57.030Z,17.25
2018-03-06T05:20:00.454Z,13.75
2018-03-06T05:23:04.571Z,20.85
2018-03-06T05:26:07.943Z,12.45
2018-03-06T05:29:11.314Z,27.80
2018-03-06T05:32:15.428Z,13.27
2018-03-06T05:35:18.791Z,26.23
2018-03-06T05:38:22.148Z,16.02
2018-03-06T05:41:25.495Z,14.87
2018-03-06T05:44:28.823Z,18.62
2018-03-06T05:47:32.216Z,21.02
2018-03-06T05:50:35.535Z,14.30
2018-03-06T05:53:38.944Z,13.68
2018-03-06T05:56:42.349Z,14.98
2018-03-06T05:59:45.734Z,21.10
2018-03-06T06:02:49.145Z,15.02
2018-03-06T06:05:52.464Z,20.60
2018-03-06T06:08:55.836Z,19.20
2018-03-06T06:11:59.246Z,17.80
2018-03-06T06:15:02.706Z,22.48
2018-03-06T06:18:06.736Z,13.82
2018-03-06T06:21:10.096Z,23.42
2018-03-06T06:24:14.236Z,24.98
2018-03-06T06:27:18.412Z,17.58
2018-03-06T06:30:21.754Z,19.40
2018-03-06T06:33:25.187Z,16.65
2018-03-06T06:36:28.555Z,18.65
2018-03-06T06:39:31.919Z,25.65
2018-03-06T06:42:36.047Z,19.23
2018-03-06T06:45:39.364Z,26.08
2018-03-06T06:48:43.447Z,36.00
2018-03-06T06:51:46.804Z,16.42
2018-03-06T06:54:50.476Z,20.80
2018-03-06T06:57:54.533Z,19.30
2018-03-06T07:00:57.857Z,26.98
2018-03-06T07:04:01.300Z,19.95
2018-03-06T07:07:05.505Z,23.95
2018-03-06T07:10:08.816Z,23.60
2018-03-06T07:13:13.079Z,25.55
2018-03-06T07:16:16.402Z,24.25
2018-03-06T07:19:19.736Z,15.18
2018-03-06T07:22:23.018Z,21.70
2018-03-06T07:25:27.131Z,18.65
2018-03-06T07:28:30.457Z,17.30
2018-03-06T07:31:33.758Z,21.35
2018-03-06T07:34:37.107Z,18.80
2018-03-06T07:37:40.400Z,24.20
2018-03-06T07:40:43.859Z,29.23
2018-03-06T07:43:47.205Z,20.45
2018-03-06T07:46:51.315Z,20.62
2018-03-06T07:49:54.666Z,19.02
2018-03-06T07:52:58.004Z,29.75
2018-03-06T07:56:02.136Z,23.35
2018-03-06T08:02:15.995Z,21.27
2018-03-06T08:05:20.068Z,25.55
2018-03-06T08:08:23.413Z,26.25
2018-03-06T08:11:26.755Z,20.55
2018-03-06T08:14:30.068Z,23.45
2018-03-06T08:17:33.429Z,21.35
2018-03-06T08:20:37.467Z,24.75
2018-03-06T08:23:41.230Z,25.95
2018-03-06T08:26:45.438Z,22.13
2018-03-06T08:29:48.966Z,25.02
2018-03-06T08:32:52.492Z,23.65
2018-03-06T08:35:55.875Z,22.27
2018-03-06T08:38:59.254Z,30.80
2018-03-06T08:42:02.644Z,26.00
2018-03-06T08:45:05.932Z,29.95
2018-03-06T08:48:10.019Z,30.42
2018-03-06T08:51:13.389Z,33.80
2018-03-06T08:54:16.674Z,31.48
2018-03-06T08:57:20.760Z,24.77
2018-03-06T09:00:24.174Z,27.50
2018-03-06T09:03:28.274Z,26.95
2018-03-06T09:06:31.939Z,26.17
2018-03-06T09:09:35.221Z,28.48
2018-03-06T09:12:39.267Z,33.35
2018-03-06T09:15:42.731Z,25.88
2018-03-06T09:18:46.199Z,30.90
2018-03-06T09:21:49.465Z,33.08
2018-03-06T09:24:52.759Z,33.72
2018-03-06T09:27:56.100Z,31.60
2018-03-06T09:31:00.161Z,32.50
2018-03-06T09:34:03.508Z,40.83
2018-03-06T09:37:07.654Z,36.83
2018-03-06T09:40:11.737Z,40.10
2018-03-06T09:43:15.082Z,37.22
2018-03-06T09:46:18.493Z,37.73
2018-03-06T09:49:21.796Z,37.43
2018-03-06T09:52:26.079Z,42.23
2018-03-06T09:55:29.437Z,38.10
2018-03-06T09:58:33.592Z,41.47
2018-03-06T10:01:37.021Z,42.97
2018-03-06T10:04:40.426Z,40.63
2018-03-06T10:07:43.863Z,41.43
2018-03-06T10:10:47.982Z,54.27
2018-03-06T10:13:51.346Z,160.70
2018-03-06T10:16:54.759Z,76.07
2018-03-06T10:19:58.024Z,55.87
2018-03-06T10:23:01.366Z,86.63
2018-03-06T10:26:04.714Z,48.90
2018-03-06T10:29:08.001Z,49.90
2018-03-06T10:32:11.321Z,53.93
2018-03-06T10:35:14.693Z,51.97
2018-03-06T10:38:18.022Z,57.33
2018-03-06T10:41:22.131Z,48.07
2018-03-06T10:44:25.875Z,47.07
2018-03-06T10:47:29.148Z,53.00
2018-03-06T10:50:32.516Z,50.53
2018-03-06T10:53:35.812Z,58.93
2018-03-06T10:56:39.105Z,50.40
2018-03-06T10:59:42.516Z,53.17
2018-03-06T11:02:45.833Z,54.60
2018-03-06T11:05:49.177Z,54.30
2018-03-06T11:08:52.509Z,58.17
2018-03-06T11:11:55.926Z,57.13
2018-03-06T11:14:59.252Z,54.50
2018-03-06T11:18:03.512Z,59.53
2018-03-06T11:21:06.872Z,62.50
2018-03-06T11:24:10.216Z,56.40
2018-03-06T11:27:13.573Z,62.73
2018-03-06T11:30:16.932Z,59.83
2018-03-06T11:33:20.228Z,56.57
2018-03-06T11:36:23.526Z,67.90
2018-03-06T11:39:26.944Z,60.33
2018-03-06T11:42:30.273Z,58.27
2018-03-06T11:45:33.620Z,59.27
2018-03-06T11:48:36.939Z,55.10
2018-03-06T11:51:40.255Z,60.13
2018-03-06T11:54:43.663Z,60.07
2018-03-06T11:57:47.724Z,59.77
2018-03-06T12:00:51.174Z,66.87
2018-03-06T12:03:55.368Z,62.13
2018-03-06T12:06:58.683Z,65.83
2018-03-06T12:10:01.976Z,66.43
2018-03-06T12:13:05.342Z,68.37
2018-03-06T12:16:08.700Z,69.77
2018-03-06T12:19:12.036Z,73.00
2018-03-06T12:22:15.337Z,64.63
2018-03-06T12:25:18.663Z,67.10
2018-03-06T12:28:22.862Z,75.67
2018-03-06T12:31:26.238Z,75.47
2018-03-06T12:34:29.600Z,63.80
2018-03-06T12:37:33.027Z,61.30
2018-03-06T12:40:36.353Z,72.33
2018-03-06T12:43:40.462Z,65.97
2018-03-06T12:46:43.982Z,60.73
2018-03-06T12:49:47.363Z,63.73
2018-03-06T12:52:50.661Z,62.77
2018-03-06T12:55:53.978Z,68.00
2018-03-06T12:58:57.322Z,65.27
2018-03-06T13:02:00.657Z,66.83
2018-03-06T13:05:03.995Z,62.77
2018-03-06T13:08:07.379Z,65.90
2018-03-06T13:11:10.713Z,68.67
2018-03-06T13:14:14.030Z,64.17
2018-03-06T13:17:17.337Z,67.13
2018-03-06T13:20:20.692Z,71.73
2018-03-06T13:23:24.032Z,65.77
2018-03-06T13:26:27.432Z,64.47
2018-03-06T13:29:31.627Z,71.37
2018-03-06T13:32:34.977Z,74.07
2018-03-06T13:35:39.080Z,70.90
2018-03-06T13:38:42.464Z,66.60
2018-03-06T13:41:45.843Z,70.97
2018-03-06T13:44:49.175Z,72.93
2018-03-06T13:47:53.286Z,71.55
2018-03-06T13:50:56.648Z,77.70
2018-03-06T13:53:59.973Z,60.80
2018-03-06T13:57:03.325Z,73.03
2018-03-06T14:00:06.676Z,62.45
2018-03-06T14:03:10.062Z,70.60
2018-03-06T14:06:13.397Z,65.85
2018-03-06T14:09:16.831Z,73.90
2018-03-06T14:12:20.284Z,79.25
2018-03-06T14:15:24.437Z,70.30
2018-03-06T14:18:27.772Z,76.30
2018-03-06T14:21:31.225Z,74.90
2018-03-06T14:24:35.288Z,73.97
2018-03-06T14:27:38.657Z,81.87
2018-03-06T14:30:42.110Z,113.97
2018-03-06T14:33:45.592Z,77.25
2018-03-06T14:36:49.703Z,84.97
2018-03-06T14:39:53.919Z,88.60
2018-03-06T14:42:57.248Z,80.12
2018-03-06T14:46:01.368Z,81.18
2018-03-06T14:49:04.773Z,75.40
2018-03-06T14:52:08.102Z,97.25
2018-03-06T14:55:11.471Z,76.03
2018-03-06T14:58:14.870Z,77.78
2018-03-06T15:01:18.948Z,74.47
2018-03-06T15:04:22.325Z,84.53
2018-03-06T15:07:25.638Z,93.45
2018-03-06T15:10:28.992Z,77.47
2018-03-06T15:13:32.355Z,74.00
2018-03-06T15:16:35.628Z,76.65
2018-03-06T15:19:38.926Z,75.90
2018-03-06T15:22:42.421Z,69.22
2018-03-06T15:25:45.758Z,68.70
2018-03-06T15:28:49.056Z,68.28
2018-03-06T15:31:53.127Z,73.18
2018-03-06T15:34:56.456Z,97.55
2018-03-06T15:37:59.724Z,66.95
2018-03-06T15:41:03.631Z,67.60
2018-03-06T15:44:07.026Z,70.15
2018-03-06T15:47:10.502Z,76.35
2018-03-06T15:50:13.903Z,97.07
2018-03-06T15:53:17.348Z,82.05
2018-03-06T15:56:20.709Z,72.10
2018-03-06T15:59:24.204Z,73.78
2018-03-06T16:02:27.575Z,71.78
2018-03-06T16:05:30.959Z,72.85
2018-03-06T16:08:34.371Z,73.25
2018-03-06T16:11:37.786Z,77.53
2018-03-06T16:14:41.214Z,79.90
2018-03-06T16:17:45.457Z,77.62
2018-03-06T16:20:48.890Z,70.80
2018-03-06T16:23:52.334Z,74.22
2018-03-06T16:26:55.722Z,78.57
2018-03-06T16:29:59.245Z,78.55
2018-03-06T16:33:02.660Z,75.57
2018-03-06T16:36:06.068Z,75.80
2018-03-06T16:39:10.210Z,82.88
2018-03-06T16:42:13.649Z,79.43
2018-03-06T16:45:16.997Z,96.47
2018-03-06T16:48:20.427Z,93.62
2018-03-06T16:51:23.845Z,83.72
2018-03-06T16:54:27.299Z,99.57
2018-03-06T16:57:30.577Z,91.53
2018-03-06T17:00:33.844Z,107.15
2018-03-06T17:03:37.157Z,82.75
2018-03-06T17:06:40.428Z,83.47
2018-03-06T17:09:43.864Z,106.85
2018-03-06T17:12:47.215Z,77.95
2018-03-06T17:15:51.350Z,91.95
2018-03-06T17:18:54.714Z,77.20
2018-03-06T17:21:58.764Z,72.85
2018-03-06T17:25:02.058Z,93.55
2018-03-06T17:28:05.329Z,82.00
2018-03-06T17:31:09.388Z,72.30
2018-03-06T17:34:12.693Z,98.57
2018-03-06T17:37:15.982Z,78.68
2018-03-06T17:40:19.265Z,70.75
2018-03-06T17:43:22.582Z,67.80
2018-03-06T17:46:25.926Z,78.28
2018-03-06T17:49:29.981Z,92.50
2018-03-06T17:52:33.230Z,76.53
2018-03-06T17:55:39.440Z,71.00
2018-03-06T17:58:42.821Z,61.17
2018-03-06T18:01:46.126Z,66.18
2018-03-06T18:04:49.439Z,68.75
2018-03-06T18:07:52.731Z,79.47
2018-03-06T18:10:56.148Z,70.62
2018-03-06T18:13:59.441Z,76.35
2018-03-06T18:17:02.902Z,78.97
2018-03-06T18:20:06.226Z,78.78
2018-03-06T18:23:09.535Z,67.95
2018-03-06T18:26:12.907Z,64.82
2018-03-06T18:29:16.232Z,65.20
2018-03-06T18:32:19.611Z,72.12
2018-03-06T18:35:22.942Z,66.18
2018-03-06T18:38:26.492Z,67.45
2018-03-06T18:41:30.109Z,81.32
2018-03-06T18:44:35.467Z,71.57
2018-03-06T18:47:39.026Z,84.18
2018-03-06T18:50:54.433Z,80.53
2018-03-06T18:53:58.312Z,69.85
2018-03-06T18:57:01.888Z,67.60
2018-03-06T19:00:37.547Z,68.30
2018-03-06T19:07:20.630Z,57.58
2018-03-06T19:10:24.476Z,65.95
2018-03-06T19:13:28.146Z,64.32
2018-03-06T19:16:31.649Z,66.55
2018-03-06T19:19:36.005Z,55.03
2018-03-06T19:22:39.315Z,65.22
2018-03-06T19:25:42.802Z,79.75
2018-03-06T19:28:46.166Z,76.95
2018-03-06T19:31:49.515Z,66.45
2018-03-06T19:34:52.807Z,69.53
2018-03-06T19:37:56.235Z,85.05
2018-03-06T19:40:59.502Z,70.68
2018-03-06T19:44:03.629Z,65.70
2018-03-06T19:47:06.933Z,74.87
2018-03-06T19:50:10.235Z,70.75
2018-03-06T19:53:13.695Z,64.50
2018-03-06T19:56:17.862Z,79.30
2018-03-06T19:59:21.944Z,62.55
2018-03-06T20:02:25.377Z,76.15
2018-03-06T20:05:28.802Z,71.47
2018-03-06T20:08:32.163Z,70.30
2018-03-06T20:11:35.458Z,67.85
2018-03-06T20:14:44.526Z,79.37
2018-03-06T20:17:47.874Z,72.22
2018-03-06T20:20:51.213Z,69.90
2018-03-06T20:23:54.513Z,74.15
2018-03-06T20:26:58.713Z,81.63
2018-03-06T20:30:02.079Z,63.85
2018-03-06T20:33:10.998Z,79.35
2018-03-06T20:36:14.441Z,66.68
2018-03-06T20:39:23.393Z,74.62
2018-03-06T20:42:26.788Z,70.20
2018-03-06T20:45:36.043Z,67.20
2018-03-06T20:48:39.405Z,74.82
2018-03-06T20:51:43.052Z,75.90
2018-03-06T20:54:52.279Z,69.07
2018-03-06T20:57:55.625Z,75.45
2018-03-06T21:00:58.973Z,86.63
2018-03-06T21:04:02.534Z,75.10
2018-03-06T21:07:06.612Z,71.10
2018-03-06T21:10:09.941Z,64.37
2018-03-06T21:13:13.247Z,68.10
2018-03-06T21:16:16.549Z,79.47
2018-03-06T21:19:20.660Z,66.03
2018-03-06T21:22:24.792Z,73.45
2018-03-06T21:25:28.964Z,75.25
2018-03-06T21:28:32.466Z,72.25
2018-03-06T21:31:35.790Z,75.65
2018-03-06T21:34:39.863Z,73.20
2018-03-06T21:37:43.408Z,76.57
2018-03-06T21:40:47.558Z,76.25
2018-03-06T21:43:50.911Z,68.53
2018-03-06T21:46:55.077Z,73.62
2018-03-06T21:49:59.159Z,69.87
2018-03-06T21:53:03.343Z,83.57
2018-03-06T21:56:07.477Z,82.78
2018-03-06T21:59:11.599Z,67.80
2018-03-06T22:02:15.115Z,72.97
2018-03-06T22:05:18.510Z,74.90
2018-03-06T22:08:22.611Z,72.15
2018-03-06T22:11:25.916Z,83.62
2018-03-06T22:14:30.075Z,74.65
2018-03-06T22:17:33.398Z,68.78
2018-03-06T22:20:36.806Z,78.00
2018-03-06T22:26:50.054Z,71.12
2018-03-06T22:29:53.337Z,70.30
2018-03-06T22:32:56.795Z,73.18
2018-03-06T22:36:01.131Z,69.07
2018-03-06T22:39:04.648Z,80.55
2018-03-06T22:42:08.060Z,76.35
2018-03-06T22:45:11.511Z,72.70
2018-03-06T22:48:14.902Z,78.28
2018-03-06T22:51:18.291Z,80.90
2018-03-06T22:54:21.603Z,72.57
2018-03-06T22:57:25.054Z,76.62
2018-03-06T23:00:28.408Z,70.40
2018-03-06T23:03:32.556Z,74.03
2018-03-06T23:06:36.343Z,69.22
2018-03-06T23:09:39.862Z,75.68
2018-03-06T23:12:43.811Z,63.87
2018-03-06T23:15:49.308Z,68.80
2018-03-06T23:18:52.670Z,71.22
2018-03-06T23:21:56.273Z,72.78
2018-03-06T23:24:59.634Z,75.28
2018-03-06T23:28:03.072Z,78.20
2018-03-06T23:31:06.424Z,69.97
2018-03-06T23:34:09.784Z,58.45
2018-03-06T23:37:13.176Z,76.72
2018-03-06T23:40:17.332Z,67.60
2018-03-06T23:43:20.699Z,72.50
2018-03-06T23:46:24.909Z,75.85
2018-03-06T23:49:28.343Z,71.35
2018-03-06T23:52:32.433Z,66.25
2018-03-06T23:55:35.969Z,64.07
2018-03-06T23:58:39.281Z,72.03
